sensor_id;sensor_type;location;lat;lon;timestamp;temperature;humidity
1592;DHT22;789;51.612;7.510;2022-10-31T00:01:26;17.80;1.00
1592;DHT22;789;51.612;7.510;2022-10-31T00:03:53;17.80;1.00
1592;DHT22;789;51.612;7.510;2022-10-31T00:06:22;17.80;1.00
1592;DHT22;789;51.612;7.510;2022-10-31T00:08:52;17.80;1.00
1592;DHT22;789;51.612;7.510;2022-10-31T00:11:20;17.80;1.00
1592;DHT22;789;51.612;7.510;2022-10-31T00:13:47;17.80;1.00
1592;DHT22;789;51.612;7.510;2022-10-31T00:16:14;17.80;1.00
1592;DHT22;789;51.612;7.510;2022-10-31T00:18:41;17.80;1.00
1592;DHT22;789;51.612;7.510;2022-10-31T00:21:08;17.80;1.00
1592;DHT22;789;51.612;7.510;2022-10-31T00:23:36;17.90;1.00
1592;DHT22;789;51.612;7.510;2022-10-31T00:26:03;17.80;1.00
1592;DHT22;789;51.612;7.510;2022-10-31T00:28:30;17.80;1.00
1592;DHT22;789;51.612;7.510;2022-10-31T00:31:01;17.80;1.00
1592;DHT22;789;51.612;7.510;2022-10-31T00:33:28;17.90;1.00
1592;DHT22;789;51.612;7.510;2022-10-31T00:35:55;17.90;1.00
1592;DHT22;789;51.612;7.510;2022-10-31T00:38:23;17.80;1.00
1592;DHT22;789;51.612;7.510;2022-10-31T00:40:51;17.90;1.00
1592;DHT22;789;51.612;7.510;2022-10-31T00:43:18;17.90;1.00
1592;DHT22;789;51.612;7.510;2022-10-31T00:45:45;17.90;1.00
1592;DHT22;789;51.612;7.510;2022-10-31T00:48:11;17.80;1.00
1592;DHT22;789;51.612;7.510;2022-10-31T00:50:38;17.80;1.00
1592;DHT22;789;51.612;7.510;2022-10-31T00:53:05;17.80;1.00
1592;DHT22;789;51.612;7.510;2022-10-31T00:55:32;17.80;1.00
1592;DHT22;789;51.612;7.510;2022-10-31T00:58:00;17.80;1.00
1592;DHT22;789;51.612;7.510;2022-10-31T01:00:27;17.70;1.00
1592;DHT22;789;51.612;7.510;2022-10-31T01:02:54;17.70;1.00
1592;DHT22;789;51.612;7.510;2022-10-31T01:05:21;17.70;1.00
1592;DHT22;789;51.612;7.510;2022-10-31T01:07:47;17.60;1.00
1592;DHT22;789;51.612;7.510;2022-10-31T01:10:14;17.60;1.00
1592;DHT22;789;51.612;7.510;2022-10-31T01:12:43;17.60;1.00
1592;DHT22;789;51.612;7.510;2022-10-31T01:15:15;17.60;1.00
1592;DHT22;789;51.612;7.510;2022-10-31T01:17:42;17.60;1.00
1592;DHT22;789;51.612;7.510;2022-10-31T01:20:11;17.60;1.00
1592;DHT22;789;51.612;7.510;2022-10-31T01:22:38;17.60;1.00
1592;DHT22;789;51.612;7.510;2022-10-31T01:25:06;17.70;1.00
1592;DHT22;789;51.612;7.510;2022-10-31T01:27:33;17.60;1.00
1592;DHT22;789;51.612;7.510;2022-10-31T01:29:59;17.60;1.00
1592;DHT22;789;51.612;7.510;2022-10-31T01:32:28;17.60;1.00
1592;DHT22;789;51.612;7.510;2022-10-31T01:34:55;17.60;1.00
1592;DHT22;789;51.612;7.510;2022-10-31T01:37:22;17.60;1.00
1592;DHT22;789;51.612;7.510;2022-10-31T01:39:48;17.60;1.00
1592;DHT22;789;51.612;7.510;2022-10-31T01:42:18;17.60;1.00
1592;DHT22;789;51.612;7.510;2022-10-31T01:44:52;17.60;1.00
1592;DHT22;789;51.612;7.510;2022-10-31T01:47:25;17.50;1.00
1592;DHT22;789;51.612;7.510;2022-10-31T01:49:57;17.50;1.00
1592;DHT22;789;51.612;7.510;2022-10-31T01:52:30;17.50;1.00
1592;DHT22;789;51.612;7.510;2022-10-31T01:55:00;17.40;1.00
1592;DHT22;789;51.612;7.510;2022-10-31T01:57:29;17.40;1.00
1592;DHT22;789;51.612;7.510;2022-10-31T01:59:59;17.20;1.00
1592;DHT22;789;51.612;7.510;2022-10-31T02:02:27;17.20;1.00
1592;DHT22;789;51.612;7.510;2022-10-31T02:04:58;17.10;1.00
1592;DHT22;789;51.612;7.510;2022-10-31T02:07:30;17.00;1.00
1592;DHT22;789;51.612;7.510;2022-10-31T02:10:00;17.00;1.00
1592;DHT22;789;51.612;7.510;2022-10-31T02:12:29;17.00;1.00
1592;DHT22;789;51.612;7.510;2022-10-31T02:14:56;17.00;1.00
1592;DHT22;789;51.612;7.510;2022-10-31T02:17:23;17.10;1.00
1592;DHT22;789;51.612;7.510;2022-10-31T02:19:58;17.10;1.00
1592;DHT22;789;51.612;7.510;2022-10-31T02:22:31;17.20;1.00
1592;DHT22;789;51.612;7.510;2022-10-31T02:25:16;17.20;1.00
1592;DHT22;789;51.612;7.510;2022-10-31T02:27:59;17.20;1.00
1592;DHT22;789;51.612;7.510;2022-10-31T02:30:31;17.10;1.00
1592;DHT22;789;51.612;7.510;2022-10-31T02:33:16;17.10;1.00
1592;DHT22;789;51.612;7.510;2022-10-31T02:35:53;17.10;1.00
1592;DHT22;789;51.612;7.510;2022-10-31T02:38:30;17.00;1.00
1592;DHT22;789;51.612;7.510;2022-10-31T02:41:04;17.00;1.00
1592;DHT22;789;51.612;7.510;2022-10-31T02:43:38;16.90;1.00
1592;DHT22;789;51.612;7.510;2022-10-31T02:46:11;16.90;1.00
1592;DHT22;789;51.612;7.510;2022-10-31T02:48:44;16.80;1.00
1592;DHT22;789;51.612;7.510;2022-10-31T02:51:12;16.80;1.00
1592;DHT22;789;51.612;7.510;2022-10-31T02:53:39;16.80;1.00
1592;DHT22;789;51.612;7.510;2022-10-31T02:56:11;16.70;1.00
1592;DHT22;789;51.612;7.510;2022-10-31T02:58:40;16.70;1.00
1592;DHT22;789;51.612;7.510;2022-10-31T03:04:31;16.40;1.00
1592;DHT22;789;51.612;7.510;2022-10-31T03:07:07;16.40;1.00
1592;DHT22;789;51.612;7.510;2022-10-31T03:09:42;16.30;1.00
1592;DHT22;789;51.612;7.510;2022-10-31T03:12:15;16.30;1.00
1592;DHT22;789;51.612;7.510;2022-10-31T03:14:50;16.30;1.00
1592;DHT22;789;51.612;7.510;2022-10-31T03:17:22;16.30;1.00
1592;DHT22;789;51.612;7.510;2022-10-31T03:19:53;16.30;1.00
1592;DHT22;789;51.612;7.510;2022-10-31T03:22:23;16.30;1.00
1592;DHT22;789;51.612;7.510;2022-10-31T03:24:52;16.30;1.00
1592;DHT22;789;51.612;7.510;2022-10-31T03:27:23;16.30;1.00
1592;DHT22;789;51.612;7.510;2022-10-31T03:29:53;16.20;1.00
1592;DHT22;789;51.612;7.510;2022-10-31T03:32:24;16.20;1.00
1592;DHT22;789;51.612;7.510;2022-10-31T03:34:56;16.20;1.00
1592;DHT22;789;51.612;7.510;2022-10-31T03:37:27;16.10;1.00
1592;DHT22;789;51.612;7.510;2022-10-31T03:39:55;16.10;1.00
1592;DHT22;789;51.612;7.510;2022-10-31T03:42:25;16.00;1.00
1592;DHT22;789;51.612;7.510;2022-10-31T03:44:56;16.00;1.00
1592;DHT22;789;51.612;7.510;2022-10-31T03:47:24;16.00;1.00
1592;DHT22;789;51.612;7.510;2022-10-31T03:49:51;16.00;1.00
1592;DHT22;789;51.612;7.510;2022-10-31T03:52:24;16.00;1.00
1592;DHT22;789;51.612;7.510;2022-10-31T03:54:55;16.00;1.00
1592;DHT22;789;51.612;7.510;2022-10-31T03:57:27;15.90;1.00
1592;DHT22;789;51.612;7.510;2022-10-31T03:59:57;15.90;1.00
1592;DHT22;789;51.612;7.510;2022-10-31T04:02:29;15.90;1.00
1592;DHT22;789;51.612;7.510;2022-10-31T04:04:57;15.90;1.00
1592;DHT22;789;51.612;7.510;2022-10-31T04:07:30;15.80;1.00
1592;DHT22;789;51.612;7.510;2022-10-31T04:10:00;15.80;1.00
1592;DHT22;789;51.612;7.510;2022-10-31T04:12:29;15.80;1.00
1592;DHT22;789;51.612;7.510;2022-10-31T04:14:57;15.70;1.00
1592;DHT22;789;51.612;7.510;2022-10-31T04:17:27;15.70;1.00
1592;DHT22;789;51.612;7.510;2022-10-31T04:19:59;15.70;1.00
1592;DHT22;789;51.612;7.510;2022-10-31T04:22:27;15.70;1.00
1592;DHT22;789;51.612;7.510;2022-10-31T04:24:53;15.70;1.00
1592;DHT22;789;51.612;7.510;2022-10-31T04:27:20;15.70;1.00
1592;DHT22;789;51.612;7.510;2022-10-31T04:29:47;15.70;1.00
1592;DHT22;789;51.612;7.510;2022-10-31T04:32:13;15.70;1.00
1592;DHT22;789;51.612;7.510;2022-10-31T04:34:40;15.70;1.00
1592;DHT22;789;51.612;7.510;2022-10-31T04:37:07;15.70;1.00
1592;DHT22;789;51.612;7.510;2022-10-31T04:39:35;15.70;1.00
1592;DHT22;789;51.612;7.510;2022-10-31T04:42:02;15.60;1.00
1592;DHT22;789;51.612;7.510;2022-10-31T04:44:29;15.60;1.00
1592;DHT22;789;51.612;7.510;2022-10-31T04:46:57;15.60;1.00
1592;DHT22;789;51.612;7.510;2022-10-31T04:49:23;15.60;1.00
1592;DHT22;789;51.612;7.510;2022-10-31T04:51:50;15.50;1.00
1592;DHT22;789;51.612;7.510;2022-10-31T04:54:17;15.50;1.00
1592;DHT22;789;51.612;7.510;2022-10-31T04:56:45;15.50;1.00
1592;DHT22;789;51.612;7.510;2022-10-31T04:59:11;15.50;1.00
1592;DHT22;789;51.612;7.510;2022-10-31T05:01:38;15.50;1.00
1592;DHT22;789;51.612;7.510;2022-10-31T05:04:05;15.50;1.00
1592;DHT22;789;51.612;7.510;2022-10-31T05:06:31;15.40;1.00
1592;DHT22;789;51.612;7.510;2022-10-31T05:08:58;15.40;1.00
1592;DHT22;789;51.612;7.510;2022-10-31T05:11:25;15.40;1.00
1592;DHT22;789;51.612;7.510;2022-10-31T05:13:59;15.40;1.00
1592;DHT22;789;51.612;7.510;2022-10-31T05:16:26;15.30;1.00
1592;DHT22;789;51.612;7.510;2022-10-31T05:18:52;15.30;1.00
1592;DHT22;789;51.612;7.510;2022-10-31T05:21:19;15.30;1.00
1592;DHT22;789;51.612;7.510;2022-10-31T05:23:46;15.30;1.00
1592;DHT22;789;51.612;7.510;2022-10-31T05:26:13;15.30;1.00
1592;DHT22;789;51.612;7.510;2022-10-31T05:28:39;15.20;1.00
1592;DHT22;789;51.612;7.510;2022-10-31T05:31:07;15.10;1.00
1592;DHT22;789;51.612;7.510;2022-10-31T05:33:34;15.00;1.00
1592;DHT22;789;51.612;7.510;2022-10-31T05:36:01;15.00;1.00
1592;DHT22;789;51.612;7.510;2022-10-31T05:38:27;14.90;1.00
1592;DHT22;789;51.612;7.510;2022-10-31T05:40:54;15.00;1.00
1592;DHT22;789;51.612;7.510;2022-10-31T05:43:23;14.90;1.00
1592;DHT22;789;51.612;7.510;2022-10-31T05:45:52;15.00;1.00
1592;DHT22;789;51.612;7.510;2022-10-31T05:48:20;15.00;1.00
1592;DHT22;789;51.612;7.510;2022-10-31T05:50:47;15.00;1.00
1592;DHT22;789;51.612;7.510;2022-10-31T05:53:14;15.00;1.00
1592;DHT22;789;51.612;7.510;2022-10-31T05:55:42;14.90;1.00
1592;DHT22;789;51.612;7.510;2022-10-31T05:58:09;15.00;1.00
1592;DHT22;789;51.612;7.510;2022-10-31T06:00:36;15.00;1.00
1592;DHT22;789;51.612;7.510;2022-10-31T06:03:04;15.00;1.00
1592;DHT22;789;51.612;7.510;2022-10-31T06:05:32;15.00;1.00
1592;DHT22;789;51.612;7.510;2022-10-31T06:07:59;15.00;1.00
1592;DHT22;789;51.612;7.510;2022-10-31T06:10:27;15.00;1.00
1592;DHT22;789;51.612;7.510;2022-10-31T06:12:53;15.00;1.00
1592;DHT22;789;51.612;7.510;2022-10-31T06:15:20;15.00;1.00
1592;DHT22;789;51.612;7.510;2022-10-31T06:17:47;15.00;1.00
1592;DHT22;789;51.612;7.510;2022-10-31T06:20:23;15.00;1.00
1592;DHT22;789;51.612;7.510;2022-10-31T06:22:51;15.00;1.00
1592;DHT22;789;51.612;7.510;2022-10-31T06:25:17;14.90;1.00
1592;DHT22;789;51.612;7.510;2022-10-31T06:27:44;14.90;1.00
1592;DHT22;789;51.612;7.510;2022-10-31T06:30:12;14.90;1.00
1592;DHT22;789;51.612;7.510;2022-10-31T06:32:38;14.90;1.00
1592;DHT22;789;51.612;7.510;2022-10-31T06:35:06;14.90;1.00
1592;DHT22;789;51.612;7.510;2022-10-31T06:37:32;14.90;1.00
1592;DHT22;789;51.612;7.510;2022-10-31T06:40:00;15.00;1.00
1592;DHT22;789;51.612;7.510;2022-10-31T06:42:27;15.00;1.00
1592;DHT22;789;51.612;7.510;2022-10-31T06:44:54;15.00;1.00
1592;DHT22;789;51.612;7.510;2022-10-31T06:47:21;15.10;1.00
1592;DHT22;789;51.612;7.510;2022-10-31T06:49:47;15.00;1.00
1592;DHT22;789;51.612;7.510;2022-10-31T06:52:14;15.10;1.00
1592;DHT22;789;51.612;7.510;2022-10-31T06:54:41;15.10;1.00
1592;DHT22;789;51.612;7.510;2022-10-31T06:57:09;15.20;1.00
1592;DHT22;789;51.612;7.510;2022-10-31T06:59:36;15.30;1.00
1592;DHT22;789;51.612;7.510;2022-10-31T07:02:02;15.40;1.00
1592;DHT22;789;51.612;7.510;2022-10-31T07:04:29;15.50;1.00
1592;DHT22;789;51.612;7.510;2022-10-31T07:06:56;15.60;1.00
1592;DHT22;789;51.612;7.510;2022-10-31T07:09:22;15.70;1.00
1592;DHT22;789;51.612;7.510;2022-10-31T07:11:51;15.80;1.00
1592;DHT22;789;51.612;7.510;2022-10-31T07:14:20;15.90;1.00
1592;DHT22;789;51.612;7.510;2022-10-31T07:16:48;16.00;1.00
1592;DHT22;789;51.612;7.510;2022-10-31T07:19:16;16.10;1.00
1592;DHT22;789;51.612;7.510;2022-10-31T07:21:43;16.10;1.00
1592;DHT22;789;51.612;7.510;2022-10-31T07:24:10;16.20;1.00
1592;DHT22;789;51.612;7.510;2022-10-31T07:26:36;16.30;1.00
1592;DHT22;789;51.612;7.510;2022-10-31T07:29:03;16.30;1.00
1592;DHT22;789;51.612;7.510;2022-10-31T07:31:31;16.40;1.00
1592;DHT22;789;51.612;7.510;2022-10-31T07:33:58;16.50;1.00
1592;DHT22;789;51.612;7.510;2022-10-31T07:36:25;16.60;1.00
1592;DHT22;789;51.612;7.510;2022-10-31T07:38:51;16.60;1.00
1592;DHT22;789;51.612;7.510;2022-10-31T07:41:18;16.70;1.00
1592;DHT22;789;51.612;7.510;2022-10-31T07:43:45;16.80;1.00
1592;DHT22;789;51.612;7.510;2022-10-31T07:46:12;16.90;1.00
1592;DHT22;789;51.612;7.510;2022-10-31T07:48:40;17.00;1.00
1592;DHT22;789;51.612;7.510;2022-10-31T07:51:07;17.10;1.00
1592;DHT22;789;51.612;7.510;2022-10-31T07:53:33;17.30;1.00
1592;DHT22;789;51.612;7.510;2022-10-31T07:56:00;17.20;1.00
1592;DHT22;789;51.612;7.510;2022-10-31T07:58:30;17.30;1.00
1592;DHT22;789;51.612;7.510;2022-10-31T08:00:57;17.30;1.00
1592;DHT22;789;51.612;7.510;2022-10-31T08:03:24;17.30;1.00
1592;DHT22;789;51.612;7.510;2022-10-31T08:05:52;17.30;1.00
1592;DHT22;789;51.612;7.510;2022-10-31T08:08:19;17.40;1.00
1592;DHT22;789;51.612;7.510;2022-10-31T08:10:46;17.40;1.00
1592;DHT22;789;51.612;7.510;2022-10-31T08:13:13;17.40;1.00
1592;DHT22;789;51.612;7.510;2022-10-31T08:15:40;17.50;1.00
1592;DHT22;789;51.612;7.510;2022-10-31T08:18:11;17.50;1.00
1592;DHT22;789;51.612;7.510;2022-10-31T08:20:38;17.50;1.00
1592;DHT22;789;51.612;7.510;2022-10-31T08:23:06;17.60;1.00
1592;DHT22;789;51.612;7.510;2022-10-31T08:25:34;17.60;1.00
1592;DHT22;789;51.612;7.510;2022-10-31T08:28:01;17.60;1.00
1592;DHT22;789;51.612;7.510;2022-10-31T08:30:34;17.70;1.00
1592;DHT22;789;51.612;7.510;2022-10-31T08:33:02;17.80;1.00
1592;DHT22;789;51.612;7.510;2022-10-31T08:35:29;17.90;1.00
1592;DHT22;789;51.612;7.510;2022-10-31T08:37:57;18.10;1.00
1592;DHT22;789;51.612;7.510;2022-10-31T08:40:27;18.20;1.00
1592;DHT22;789;51.612;7.510;2022-10-31T08:42:58;18.40;1.00
1592;DHT22;789;51.612;7.510;2022-10-31T08:45:25;18.70;1.00
1592;DHT22;789;51.612;7.510;2022-10-31T08:47:52;19.10;1.00
1592;DHT22;789;51.612;7.510;2022-10-31T08:50:22;19.50;1.00
1592;DHT22;789;51.612;7.510;2022-10-31T08:52:49;19.80;1.00
1592;DHT22;789;51.612;7.510;2022-10-31T08:55:16;19.90;1.00
1592;DHT22;789;51.612;7.510;2022-10-31T08:57:44;20.00;1.00
1592;DHT22;789;51.612;7.510;2022-10-31T09:00:11;20.10;1.00
1592;DHT22;789;51.612;7.510;2022-10-31T09:02:38;20.10;1.00
1592;DHT22;789;51.612;7.510;2022-10-31T09:05:05;20.00;1.00
1592;DHT22;789;51.612;7.510;2022-10-31T09:07:32;20.00;1.00
1592;DHT22;789;51.612;7.510;2022-10-31T09:09:58;20.00;1.00
1592;DHT22;789;51.612;7.510;2022-10-31T09:12:25;20.00;1.00
1592;DHT22;789;51.612;7.510;2022-10-31T09:14:53;20.10;1.00
1592;DHT22;789;51.612;7.510;2022-10-31T09:17:20;20.20;1.00
1592;DHT22;789;51.612;7.510;2022-10-31T09:19:46;20.40;1.00
1592;DHT22;789;51.612;7.510;2022-10-31T09:22:14;20.40;1.00
1592;DHT22;789;51.612;7.510;2022-10-31T09:24:40;20.50;1.00
1592;DHT22;789;51.612;7.510;2022-10-31T09:27:07;20.80;1.00
1592;DHT22;789;51.612;7.510;2022-10-31T09:29:34;21.40;1.00
1592;DHT22;789;51.612;7.510;2022-10-31T09:32:02;22.50;1.00
1592;DHT22;789;51.612;7.510;2022-10-31T09:34:29;23.70;1.00
1592;DHT22;789;51.612;7.510;2022-10-31T09:36:56;24.80;1.00
1592;DHT22;789;51.612;7.510;2022-10-31T09:39:22;25.60;1.00
1592;DHT22;789;51.612;7.510;2022-10-31T09:42:03;26.40;1.00
1592;DHT22;789;51.612;7.510;2022-10-31T09:44:40;27.00;1.00
1592;DHT22;789;51.612;7.510;2022-10-31T09:47:20;27.30;1.00
1592;DHT22;789;51.612;7.510;2022-10-31T09:50:02;27.50;1.00
1592;DHT22;789;51.612;7.510;2022-10-31T09:52:34;27.80;1.00
1592;DHT22;789;51.612;7.510;2022-10-31T09:55:08;28.10;1.00
1592;DHT22;789;51.612;7.510;2022-10-31T09:57:37;28.20;1.00
1592;DHT22;789;51.612;7.510;2022-10-31T10:00:04;28.60;1.00
1592;DHT22;789;51.612;7.510;2022-10-31T10:02:37;29.10;1.00
1592;DHT22;789;51.612;7.510;2022-10-31T10:05:10;29.20;1.00
1592;DHT22;789;51.612;7.510;2022-10-31T10:07:44;29.20;1.00
1592;DHT22;789;51.612;7.510;2022-10-31T10:10:16;29.10;1.00
1592;DHT22;789;51.612;7.510;2022-10-31T10:12:58;29.10;1.00
1592;DHT22;789;51.612;7.510;2022-10-31T10:15:37;29.10;1.00
1592;DHT22;789;51.612;7.510;2022-10-31T10:18:17;28.70;1.00
1592;DHT22;789;51.612;7.510;2022-10-31T10:20:59;28.10;1.00
1592;DHT22;789;51.612;7.510;2022-10-31T10:23:35;27.30;1.00
1592;DHT22;789;51.612;7.510;2022-10-31T10:26:16;26.60;1.00
1592;DHT22;789;51.612;7.510;2022-10-31T10:28:46;26.00;1.00
1592;DHT22;789;51.612;7.510;2022-10-31T10:31:15;25.30;1.00
1592;DHT22;789;51.612;7.510;2022-10-31T10:33:50;24.70;1.00
1592;DHT22;789;51.612;7.510;2022-10-31T10:36:21;24.20;1.00
1592;DHT22;789;51.612;7.510;2022-10-31T10:38:53;23.70;1.00
1592;DHT22;789;51.612;7.510;2022-10-31T10:41:23;23.40;1.00
1592;DHT22;789;51.612;7.510;2022-10-31T10:43:51;23.20;1.00
1592;DHT22;789;51.612;7.510;2022-10-31T10:46:24;22.90;1.00
1592;DHT22;789;51.612;7.510;2022-10-31T10:49:17;22.70;1.00
1592;DHT22;789;51.612;7.510;2022-10-31T10:51:46;22.70;1.00
1592;DHT22;789;51.612;7.510;2022-10-31T10:57:13;23.60;1.00
1592;DHT22;789;51.612;7.510;2022-10-31T10:59:43;24.20;1.00
1592;DHT22;789;51.612;7.510;2022-10-31T11:02:17;24.80;1.00
1592;DHT22;789;51.612;7.510;2022-10-31T11:04:47;25.40;1.00
1592;DHT22;789;51.612;7.510;2022-10-31T11:07:16;25.70;1.00
1592;DHT22;789;51.612;7.510;2022-10-31T11:09:42;25.90;1.00
1592;DHT22;789;51.612;7.510;2022-10-31T11:12:14;26.00;1.00
1592;DHT22;789;51.612;7.510;2022-10-31T11:14:46;26.00;1.00
1592;DHT22;789;51.612;7.510;2022-10-31T11:17:22;26.10;1.00
1592;DHT22;789;51.612;7.510;2022-10-31T11:20:02;26.50;1.00
1592;DHT22;789;51.612;7.510;2022-10-31T11:22:30;26.90;1.00
1592;DHT22;789;51.612;7.510;2022-10-31T11:24:57;27.00;1.00
1592;DHT22;789;51.612;7.510;2022-10-31T11:27:25;27.10;1.00
1592;DHT22;789;51.612;7.510;2022-10-31T11:29:52;27.00;1.00
1592;DHT22;789;51.612;7.510;2022-10-31T11:32:21;26.80;1.00
1592;DHT22;789;51.612;7.510;2022-10-31T11:34:52;26.70;1.00
1592;DHT22;789;51.612;7.510;2022-10-31T11:37:24;26.70;1.00
1592;DHT22;789;51.612;7.510;2022-10-31T11:39:53;26.90;1.00
1592;DHT22;789;51.612;7.510;2022-10-31T11:42:22;27.20;1.00
1592;DHT22;789;51.612;7.510;2022-10-31T11:44:50;27.40;1.00
1592;DHT22;789;51.612;7.510;2022-10-31T11:47:21;27.70;1.00
1592;DHT22;789;51.612;7.510;2022-10-31T11:49:50;27.80;1.00
1592;DHT22;789;51.612;7.510;2022-10-31T11:52:25;27.80;1.00
1592;DHT22;789;51.612;7.510;2022-10-31T11:54:54;27.50;1.00
1592;DHT22;789;51.612;7.510;2022-10-31T11:57:23;27.10;1.00
1592;DHT22;789;51.612;7.510;2022-10-31T11:59:52;26.80;1.00
1592;DHT22;789;51.612;7.510;2022-10-31T12:02:20;26.30;1.00
1592;DHT22;789;51.612;7.510;2022-10-31T12:04:50;25.80;1.00
1592;DHT22;789;51.612;7.510;2022-10-31T12:07:17;25.30;1.00
1592;DHT22;789;51.612;7.510;2022-10-31T12:09:45;24.90;1.00
1592;DHT22;789;51.612;7.510;2022-10-31T12:12:35;24.40;1.00
1592;DHT22;789;51.612;7.510;2022-10-31T12:15:18;23.80;1.00
1592;DHT22;789;51.612;7.510;2022-10-31T12:17:52;23.20;1.00
1592;DHT22;789;51.612;7.510;2022-10-31T12:20:25;22.80;1.00
1592;DHT22;789;51.612;7.510;2022-10-31T12:23:00;22.50;1.00
1592;DHT22;789;51.612;7.510;2022-10-31T12:25:38;22.30;1.00
1592;DHT22;789;51.612;7.510;2022-10-31T12:28:40;22.10;1.00
1592;DHT22;789;51.612;7.510;2022-10-31T12:31:21;22.10;1.00
1592;DHT22;789;51.612;7.510;2022-10-31T12:34:00;22.00;1.00
1592;DHT22;789;51.612;7.510;2022-10-31T12:36:46;22.00;1.00
1592;DHT22;789;51.612;7.510;2022-10-31T12:39:25;21.90;1.00
1592;DHT22;789;51.612;7.510;2022-10-31T12:41:59;21.90;1.00
1592;DHT22;789;51.612;7.510;2022-10-31T12:44:50;21.90;1.00
1592;DHT22;789;51.612;7.510;2022-10-31T12:47:39;21.80;1.00
1592;DHT22;789;51.612;7.510;2022-10-31T12:50:24;21.80;1.00
1592;DHT22;789;51.612;7.510;2022-10-31T12:53:06;21.80;1.00
1592;DHT22;789;51.612;7.510;2022-10-31T12:55:44;21.70;1.00
1592;DHT22;789;51.612;7.510;2022-10-31T12:58:20;21.70;1.00
1592;DHT22;789;51.612;7.510;2022-10-31T13:01:02;21.70;1.00
1592;DHT22;789;51.612;7.510;2022-10-31T13:03:35;21.60;1.00
1592;DHT22;789;51.612;7.510;2022-10-31T13:06:09;21.60;1.00
1592;DHT22;789;51.612;7.510;2022-10-31T13:08:42;21.60;1.00
1592;DHT22;789;51.612;7.510;2022-10-31T13:11:14;21.50;1.00
1592;DHT22;789;51.612;7.510;2022-10-31T13:13:45;21.50;1.00
1592;DHT22;789;51.612;7.510;2022-10-31T13:16:15;21.40;1.00
1592;DHT22;789;51.612;7.510;2022-10-31T13:18:47;21.30;1.00
1592;DHT22;789;51.612;7.510;2022-10-31T13:21:20;21.30;1.00
1592;DHT22;789;51.612;7.510;2022-10-31T13:23:50;21.30;1.00
1592;DHT22;789;51.612;7.510;2022-10-31T13:26:23;21.30;1.00
1592;DHT22;789;51.612;7.510;2022-10-31T13:28:56;21.30;1.00
1592;DHT22;789;51.612;7.510;2022-10-31T13:31:26;21.20;1.00
1592;DHT22;789;51.612;7.510;2022-10-31T13:33:57;21.20;1.00
1592;DHT22;789;51.612;7.510;2022-10-31T13:36:30;21.20;1.00
1592;DHT22;789;51.612;7.510;2022-10-31T13:39:05;21.10;1.00
1592;DHT22;789;51.612;7.510;2022-10-31T13:41:43;21.10;1.00
1592;DHT22;789;51.612;7.510;2022-10-31T13:44:14;21.10;1.00
1592;DHT22;789;51.612;7.510;2022-10-31T13:46:43;21.10;1.00
1592;DHT22;789;51.612;7.510;2022-10-31T13:49:40;21.10;1.00
1592;DHT22;789;51.612;7.510;2022-10-31T13:52:22;21.10;1.00
1592;DHT22;789;51.612;7.510;2022-10-31T13:54:51;21.10;1.00
1592;DHT22;789;51.612;7.510;2022-10-31T13:57:30;21.10;1.00
1592;DHT22;789;51.612;7.510;2022-10-31T14:00:00;21.10;1.00
1592;DHT22;789;51.612;7.510;2022-10-31T14:02:30;21.10;1.00
1592;DHT22;789;51.612;7.510;2022-10-31T14:04:59;21.10;1.00
1592;DHT22;789;51.612;7.510;2022-10-31T14:07:27;21.00;1.00
1592;DHT22;789;51.612;7.510;2022-10-31T14:09:57;20.90;1.00
1592;DHT22;789;51.612;7.510;2022-10-31T14:12:29;20.90;1.00
1592;DHT22;789;51.612;7.510;2022-10-31T14:15:00;20.90;1.00
1592;DHT22;789;51.612;7.510;2022-10-31T14:17:33;20.90;1.00
1592;DHT22;789;51.612;7.510;2022-10-31T14:20:26;20.80;1.00
1592;DHT22;789;51.612;7.510;2022-10-31T14:22:57;20.80;1.00
1592;DHT22;789;51.612;7.510;2022-10-31T14:25:32;20.70;1.00
1592;DHT22;789;51.612;7.510;2022-10-31T14:28:01;20.70;1.00
1592;DHT22;789;51.612;7.510;2022-10-31T14:30:30;20.70;1.00
1592;DHT22;789;51.612;7.510;2022-10-31T14:33:00;20.60;1.00
1592;DHT22;789;51.612;7.510;2022-10-31T14:35:37;20.60;1.00
1592;DHT22;789;51.612;7.510;2022-10-31T14:38:18;20.60;1.00
1592;DHT22;789;51.612;7.510;2022-10-31T14:40:58;20.50;1.00
1592;DHT22;789;51.612;7.510;2022-10-31T14:43:41;20.60;1.00
1592;DHT22;789;51.612;7.510;2022-10-31T14:46:30;20.50;1.00
1592;DHT22;789;51.612;7.510;2022-10-31T14:49:16;20.60;1.00
1592;DHT22;789;51.612;7.510;2022-10-31T14:51:47;20.60;1.00
1592;DHT22;789;51.612;7.510;2022-10-31T14:54:19;20.60;1.00
1592;DHT22;789;51.612;7.510;2022-10-31T14:56:50;20.60;1.00
1592;DHT22;789;51.612;7.510;2022-10-31T14:59:23;20.60;1.00
1592;DHT22;789;51.612;7.510;2022-10-31T15:01:57;20.60;1.00
1592;DHT22;789;51.612;7.510;2022-10-31T15:04:27;20.50;1.00
1592;DHT22;789;51.612;7.510;2022-10-31T15:06:59;20.50;1.00
1592;DHT22;789;51.612;7.510;2022-10-31T15:09:28;20.50;1.00
1592;DHT22;789;51.612;7.510;2022-10-31T15:11:55;20.40;1.00
1592;DHT22;789;51.612;7.510;2022-10-31T15:14:24;20.40;1.00
1592;DHT22;789;51.612;7.510;2022-10-31T15:16:53;20.30;1.00
1592;DHT22;789;51.612;7.510;2022-10-31T15:19:24;20.30;1.00
1592;DHT22;789;51.612;7.510;2022-10-31T15:21:53;20.30;1.00
1592;DHT22;789;51.612;7.510;2022-10-31T15:24:20;20.30;1.00
1592;DHT22;789;51.612;7.510;2022-10-31T15:26:51;20.30;1.00
1592;DHT22;789;51.612;7.510;2022-10-31T15:29:20;20.30;1.00
1592;DHT22;789;51.612;7.510;2022-10-31T15:31:51;20.20;1.00
1592;DHT22;789;51.612;7.510;2022-10-31T15:34:22;20.20;1.00
1592;DHT22;789;51.612;7.510;2022-10-31T15:36:51;20.10;1.00
1592;DHT22;789;51.612;7.510;2022-10-31T15:39:18;20.10;1.00
1592;DHT22;789;51.612;7.510;2022-10-31T15:41:49;20.10;1.00
1592;DHT22;789;51.612;7.510;2022-10-31T15:44:19;20.00;1.00
1592;DHT22;789;51.612;7.510;2022-10-31T15:46:53;19.90;1.00
1592;DHT22;789;51.612;7.510;2022-10-31T15:49:28;19.80;1.00
1592;DHT22;789;51.612;7.510;2022-10-31T15:51:56;19.80;1.00
1592;DHT22;789;51.612;7.510;2022-10-31T15:54:25;19.70;1.00
1592;DHT22;789;51.612;7.510;2022-10-31T15:56:52;19.70;1.00
1592;DHT22;789;51.612;7.510;2022-10-31T15:59:22;19.60;1.00
1592;DHT22;789;51.612;7.510;2022-10-31T16:02:00;19.60;1.00
1592;DHT22;789;51.612;7.510;2022-10-31T16:04:29;19.60;1.00
1592;DHT22;789;51.612;7.510;2022-10-31T16:06:59;19.50;1.00
1592;DHT22;789;51.612;7.510;2022-10-31T16:09:26;19.50;1.00
1592;DHT22;789;51.612;7.510;2022-10-31T16:11:55;19.40;1.00
1592;DHT22;789;51.612;7.510;2022-10-31T16:14:24;19.30;1.00
1592;DHT22;789;51.612;7.510;2022-10-31T16:16:54;19.30;1.00
1592;DHT22;789;51.612;7.510;2022-10-31T16:19:24;19.30;1.00
1592;DHT22;789;51.612;7.510;2022-10-31T16:21:55;19.30;1.00
1592;DHT22;789;51.612;7.510;2022-10-31T16:24:26;19.20;1.00
1592;DHT22;789;51.612;7.510;2022-10-31T16:26:56;19.20;1.00
1592;DHT22;789;51.612;7.510;2022-10-31T16:29:27;19.20;1.00
1592;DHT22;789;51.612;7.510;2022-10-31T16:31:54;19.20;1.00
1592;DHT22;789;51.612;7.510;2022-10-31T16:34:22;19.20;1.00
1592;DHT22;789;51.612;7.510;2022-10-31T16:36:49;19.20;1.00
1592;DHT22;789;51.612;7.510;2022-10-31T16:39:17;19.10;1.00
1592;DHT22;789;51.612;7.510;2022-10-31T16:41:46;19.10;1.00
1592;DHT22;789;51.612;7.510;2022-10-31T16:44:17;19.10;1.00
1592;DHT22;789;51.612;7.510;2022-10-31T16:46:44;19.00;1.00
1592;DHT22;789;51.612;7.510;2022-10-31T16:49:11;19.00;1.00
1592;DHT22;789;51.612;7.510;2022-10-31T16:51:38;19.00;1.00
1592;DHT22;789;51.612;7.510;2022-10-31T16:54:05;18.90;1.00
1592;DHT22;789;51.612;7.510;2022-10-31T16:56:34;18.90;1.00
1592;DHT22;789;51.612;7.510;2022-10-31T16:59:05;18.90;1.00
1592;DHT22;789;51.612;7.510;2022-10-31T17:01:33;18.80;1.00